Time;durP1;ratioP1;P1;durP2;ratioP2;P2;SDS_P1;SDS_P2;PMS_P1;PMS_P2;Temp;Humidity;BMP_temperature;BMP_pressure;BME280_temperature;BME280_humidity;BME280_pressure;Samples;Min_cycle;Max_cycle;Signal;HPM_P1;HPM_P2
2022/12/25 00:01:12;;;;;;;22.13;13.20;;;7.40;99.90;;;;;;5074303;28;20035;-77
2022/12/25 00:03:38;;;;;;;19.20;13.93;;;7.30;99.90;;;;;;5081306;28;20077;-77
2022/12/25 00:06:04;;;;;;;20.98;14.10;;;7.10;99.90;;;;;;5094392;28;20034;-77
2022/12/25 00:08:30;;;;;;;20.15;13.95;;;7.00;99.90;;;;;;5094313;28;20020;-77
2022/12/25 00:10:58;;;;;;;18.98;12.75;;;7.10;99.90;;;;;;5094243;28;20048;-77
2022/12/25 00:13:24;;;;;;;18.38;12.88;;;7.20;99.90;;;;;;5093593;28;20016;-78
2022/12/25 00:15:49;;;;;;;19.80;13.68;;;7.40;99.90;;;;;;5094004;28;20084;-78
2022/12/25 00:18:15;;;;;;;16.33;12.50;;;7.40;99.90;;;;;;5093748;28;20116;-77
2022/12/25 00:20:41;;;;;;;16.50;11.98;;;7.50;99.90;;;;;;5093969;28;20032;-78
2022/12/25 00:23:06;;;;;;;18.85;12.63;;;7.50;99.90;;;;;;5074309;28;20535;-77
2022/12/25 00:25:32;;;;;;;19.48;12.32;;;7.50;99.90;;;;;;5073670;28;20029;-77
2022/12/25 00:27:58;;;;;;;20.17;12.25;;;7.50;99.90;;;;;;5073004;28;20045;-77
2022/12/25 00:30:23;;;;;;;18.27;12.35;;;7.40;99.90;;;;;;5073532;28;20466;-78
2022/12/25 00:32:49;;;;;;;16.83;11.90;;;7.50;99.90;;;;;;5073364;28;20452;-78
2022/12/25 00:35:15;;;;;;;20.95;12.75;;;7.60;99.90;;;;;;5073785;28;20023;-77
2022/12/25 00:37:40;;;;;;;16.90;12.27;;;7.50;99.90;;;;;;5073450;28;20473;-77
2022/12/25 00:40:07;;;;;;;19.63;11.95;;;7.60;99.90;;;;;;5073207;28;20039;-77
2022/12/25 00:42:32;;;;;;;21.45;12.38;;;7.50;99.90;;;;;;5072335;28;20043;-78
2022/12/25 00:45:00;;;;;;;19.33;12.23;;;7.40;99.90;;;;;;5073174;28;20532;-78
2022/12/25 00:47:26;;;;;;;16.63;11.15;;;7.40;99.90;;;;;;5072952;28;20096;-77
2022/12/25 00:49:51;;;;;;;17.35;11.68;;;7.40;99.90;;;;;;5073125;28;20131;-77
2022/12/25 00:52:17;;;;;;;16.67;11.88;;;7.30;99.90;;;;;;5073055;28;20020;-77
2022/12/25 00:54:43;;;;;;;16.63;10.98;;;7.30;99.90;;;;;;5073219;28;20016;-77
2022/12/25 00:57:08;;;;;;;15.20;10.85;;;7.30;99.90;;;;;;5072903;28;20437;-77
2022/12/25 00:59:34;;;;;;;15.52;10.93;;;7.30;99.90;;;;;;5072644;28;20484;-78
2022/12/25 01:02:22;;;;;;;15.07;9.98;;;7.40;99.90;;;;;;5072968;28;20455;-78
2022/12/25 01:04:46;;;;;;;13.85;9.30;;;7.30;99.90;;;;;;5089849;28;20028;-77
2022/12/25 01:07:12;;;;;;;16.58;11.07;;;7.30;99.90;;;;;;5093426;28;20035;-77
2022/12/25 01:12:23;;;;;;;12.15;8.75;;;7.20;99.90;;;;;;5092808;28;20077;-77
2022/12/25 01:14:49;;;;;;;14.35;10.18;;;7.20;99.90;;;;;;5092688;28;20031;-77
2022/12/25 01:17:14;;;;;;;12.40;9.10;;;7.20;99.90;;;;;;5093151;28;20016;-78
2022/12/25 01:19:40;;;;;;;12.05;8.90;;;7.10;99.90;;;;;;5093125;28;20389;-77
2022/12/25 01:22:06;;;;;;;12.63;9.00;;;7.40;99.90;;;;;;5081865;28;20043;-77
2022/12/25 01:24:31;;;;;;;11.15;8.35;;;7.40;99.90;;;;;;5072916;28;20024;-78
2022/12/25 01:26:57;;;;;;;11.23;7.90;;;7.20;99.90;;;;;;5071965;28;20561;-77
2022/12/25 01:29:22;;;;;;;10.85;7.88;;;7.20;99.90;;;;;;5072168;28;20031;-78
2022/12/25 01:31:50;;;;;;;11.95;8.93;;;7.10;99.90;;;;;;5072250;28;20493;-77
2022/12/25 01:34:15;;;;;;;11.25;8.00;;;7.10;99.90;;;;;;5071426;28;20024;-77
2022/12/25 01:36:41;;;;;;;11.73;8.43;;;7.10;99.90;;;;;;5072459;28;20039;-78
2022/12/25 01:39:07;;;;;;;9.38;7.10;;;7.20;99.90;;;;;;5072566;28;20021;-78
2022/12/25 01:41:32;;;;;;;9.25;7.25;;;7.20;99.90;;;;;;5071826;28;20371;-77
2022/12/25 01:44:08;;;;;;;8.82;6.93;;;7.20;99.90;;;;;;5071894;28;20025;-77
2022/12/25 01:46:34;;;;;;;9.40;7.38;;;7.30;99.90;;;;;;5071817;28;20036;-78
2022/12/25 01:49:18;;;;;;;9.65;6.75;;;7.40;99.90;;;;;;5072451;28;20060;-77
2022/12/25 01:51:50;;;;;;;9.57;7.03;;;7.30;99.90;;;;;;5072148;28;20024;-77
2022/12/25 01:54:26;;;;;;;9.25;6.45;;;7.30;99.90;;;;;;5071619;28;20017;-77
2022/12/25 01:56:54;;;;;;;8.85;6.47;;;7.60;99.90;;;;;;5071981;28;20017;-78
2022/12/25 01:59:22;;;;;;;7.45;6.03;;;7.60;99.90;;;;;;5071931;28;20105;-77
2022/12/25 02:01:48;;;;;;;8.45;5.55;;;7.60;99.90;;;;;;5072245;28;20115;-78
2022/12/25 02:04:38;;;;;;;6.82;5.50;;;7.60;99.90;;;;;;5084460;28;20466;-78
2022/12/25 02:07:16;;;;;;;10.85;6.18;;;7.60;99.90;;;;;;5092365;28;20036;-77
2022/12/25 02:09:42;;;;;;;6.35;5.10;;;7.70;99.90;;;;;;5092385;28;20021;-78
2022/12/25 02:12:16;;;;;;;6.78;4.90;;;7.90;99.90;;;;;;5091655;28;20024;-77
2022/12/25 02:14:42;;;;;;;5.13;4.18;;;8.20;99.90;;;;;;5092370;28;20031;-78
2022/12/25 02:17:29;;;;;;;5.75;3.95;;;8.10;99.90;;;;;;5092255;28;20405;-77
2022/12/25 02:20:38;;;;;;;4.57;3.47;;;8.10;99.90;;;;;;5092493;28;20072;-77
2022/12/25 02:23:19;;;;;;;5.82;3.90;;;8.30;99.90;;;;;;5072951;28;20025;-78
2022/12/25 02:26:12;;;;;;;5.30;3.42;;;8.50;99.90;;;;;;5071999;28;20024;-77
2022/12/25 02:28:52;;;;;;;4.10;3.42;;;8.30;99.90;;;;;;5071405;28;20217;-77
2022/12/25 02:31:26;;;;;;;4.57;3.35;;;8.10;99.90;;;;;;5071429;28;20060;-78
2022/12/25 02:34:08;;;;;;;4.22;3.30;;;8.10;99.90;;;;;;5072037;28;20020;-77
2022/12/25 02:36:56;;;;;;;4.20;3.47;;;8.00;99.90;;;;;;5072045;28;20049;-77
2022/12/25 02:39:56;;;;;;;4.45;3.10;;;7.80;99.90;;;;;;5051912;28;20028;-78
2022/12/25 03:07:47;;;;;;;3.35;2.97;;;7.80;99.90;;;;;;5095351;28;20027;-78
2022/12/25 03:13:10;;;;;;;2.58;2.38;;;7.80;99.90;;;;;;5094912;28;20077;-77
2022/12/25 03:18:24;;;;;;;3.65;2.70;;;7.70;99.90;;;;;;5095671;28;20423;-78
2022/12/25 03:29:08;;;;;;;3.90;2.55;;;7.50;99.90;;;;;;5075030;28;20059;-77
2022/12/25 03:31:52;;;;;;;3.47;3.05;;;7.40;99.90;;;;;;5074239;28;20064;-78
2022/12/25 04:38:12;;;;;;;3.90;3.13;;;7.60;99.90;;;;;;5011042;28;20033;-77
2022/12/25 04:40:38;;;;;;;4.00;3.28;;;7.40;99.90;;;;;;5011437;28;20034;-77
2022/12/25 04:43:04;;;;;;;3.72;2.88;;;7.40;99.90;;;;;;5010899;28;20105;-77
2022/12/25 04:45:29;;;;;;;3.58;2.85;;;7.40;99.90;;;;;;5011246;28;20042;-78
2022/12/25 04:47:58;;;;;;;3.05;2.47;;;7.40;99.90;;;;;;5011190;28;20033;-77
2022/12/25 04:50:24;;;;;;;3.35;2.53;;;7.40;99.90;;;;;;5011310;28;20026;-78
2022/12/25 04:52:50;;;;;;;3.42;2.58;;;7.50;99.90;;;;;;5010709;28;20089;-77
2022/12/25 04:55:15;;;;;;;2.90;2.60;;;7.50;99.90;;;;;;5011246;28;20053;-77
2022/12/25 04:57:41;;;;;;;2.80;2.45;;;7.50;99.90;;;;;;5010652;28;20030;-78
2022/12/25 05:00:07;;;;;;;3.55;2.15;;;7.70;99.90;;;;;;5011159;28;20045;-78
2022/12/25 05:02:33;;;;;;;2.70;2.40;;;7.60;99.90;;;;;;5010844;28;20049;-78
2022/12/25 05:04:59;;;;;;;3.35;2.60;;;7.50;99.90;;;;;;5045183;28;20035;-78
2022/12/25 05:07:24;;;;;;;4.07;2.40;;;7.40;99.90;;;;;;5092684;28;20428;-77
2022/12/25 05:09:50;;;;;;;4.78;2.63;;;7.40;99.90;;;;;;5093306;28;20063;-77
2022/12/25 05:12:16;;;;;;;3.13;2.67;;;7.40;99.90;;;;;;5092565;28;20451;-77
2022/12/25 05:14:41;;;;;;;3.03;2.50;;;7.60;99.90;;;;;;5093174;28;20028;-77
2022/12/25 05:17:07;;;;;;;3.75;2.60;;;7.80;99.90;;;;;;5092794;28;20509;-78
2022/12/25 05:19:33;;;;;;;2.42;2.22;;;7.90;99.90;;;;;;5092782;28;20385;-77
2022/12/25 05:21:59;;;;;;;3.25;2.75;;;7.80;99.90;;;;;;5082934;28;20020;-78
2022/12/25 05:24:26;;;;;;;2.03;1.83;;;7.80;99.90;;;;;;5072614;28;20107;-78
2022/12/25 05:26:52;;;;;;;2.63;2.20;;;7.70;99.90;;;;;;5072182;28;20032;-77
2022/12/25 05:29:18;;;;;;;3.58;2.58;;;7.70;99.90;;;;;;5072196;28;20043;-78
2022/12/25 05:31:43;;;;;;;3.10;2.28;;;7.70;99.90;;;;;;5072453;28;20029;-77
2022/12/25 05:34:09;;;;;;;2.97;1.92;;;7.70;99.90;;;;;;5072342;28;20538;-78
2022/12/25 05:36:35;;;;;;;2.40;1.88;;;7.60;99.90;;;;;;5072452;28;20027;-77
2022/12/25 05:39:00;;;;;;;2.03;1.80;;;7.70;99.90;;;;;;5072378;28;20060;-77
2022/12/25 05:41:26;;;;;;;2.72;2.20;;;7.60;99.90;;;;;;5072258;28;20025;-78
2022/12/25 05:43:52;;;;;;;1.98;1.85;;;7.50;99.90;;;;;;5072061;28;20473;-78
2022/12/25 05:46:17;;;;;;;1.83;1.73;;;7.50;99.90;;;;;;5072453;28;20185;-78
2022/12/25 05:48:43;;;;;;;2.20;1.92;;;7.50;99.90;;;;;;5072286;28;20073;-78
2022/12/25 05:51:12;;;;;;;2.10;1.90;;;7.40;99.90;;;;;;5071976;28;20028;-78
2022/12/25 05:53:39;;;;;;;2.20;1.92;;;7.40;99.90;;;;;;5071824;28;20044;-78
2022/12/25 05:56:06;;;;;;;1.70;1.60;;;7.40;99.90;;;;;;5072363;28;20509;-78
2022/12/25 05:58:33;;;;;;;3.63;2.15;;;7.40;99.90;;;;;;5071873;28;20074;-78
2022/12/25 06:00:59;;;;;;;2.30;2.00;;;7.40;99.90;;;;;;5072232;28;20124;-78
2022/12/25 06:03:25;;;;;;;2.75;2.00;;;7.30;99.90;;;;;;5077784;28;20529;-78
2022/12/25 06:05:51;;;;;;;2.22;2.03;;;7.30;99.90;;;;;;5092185;28;20058;-77
2022/12/25 06:08:17;;;;;;;2.13;1.92;;;7.30;99.90;;;;;;5092270;28;20500;-78
2022/12/25 06:10:42;;;;;;;1.67;1.58;;;7.30;99.90;;;;;;5092612;28;20023;-78
2022/12/25 06:13:08;;;;;;;2.38;1.75;;;7.20;99.90;;;;;;5091910;28;20472;-78
2022/12/25 06:15:36;;;;;;;2.75;1.83;;;7.10;99.90;;;;;;5092186;28;20370;-78
2022/12/25 06:18:02;;;;;;;1.73;1.45;;;7.20;99.90;;;;;;5092506;28;20057;-77
2022/12/25 06:20:28;;;;;;;1.60;1.50;;;7.10;99.90;;;;;;5092142;28;20023;-78
2022/12/25 06:22:53;;;;;;;2.10;1.90;;;7.10;99.90;;;;;;5074466;28;20108;-78
2022/12/25 06:25:19;;;;;;;2.03;1.70;;;7.10;99.90;;;;;;5072156;28;20473;-78
2022/12/25 06:27:45;;;;;;;1.90;1.55;;;7.00;99.90;;;;;;5071538;28;20053;-78
2022/12/25 06:30:11;;;;;;;1.73;1.63;;;7.00;99.90;;;;;;5071902;28;20082;-77
2022/12/25 06:32:36;;;;;;;1.38;1.27;;;6.80;99.90;;;;;;5072164;28;20477;-78
2022/12/25 06:35:02;;;;;;;2.45;1.80;;;6.80;99.90;;;;;;5071593;28;20091;-78
2022/12/25 06:37:28;;;;;;;1.70;1.50;;;6.90;99.90;;;;;;5071915;28;20050;-77
2022/12/25 06:39:53;;;;;;;1.40;1.30;;;6.90;99.90;;;;;;5073954;28;20032;-78
2022/12/25 06:42:19;;;;;;;1.70;1.60;;;6.90;99.90;;;;;;5075333;28;20035;-78
2022/12/25 06:44:45;;;;;;;2.70;1.52;;;6.80;99.90;;;;;;5075723;28;20024;-78
2022/12/25 06:47:11;;;;;;;3.25;1.25;;;6.70;99.90;;;;;;5075603;28;20032;-78
2022/12/25 06:49:36;;;;;;;1.50;1.40;;;6.70;99.90;;;;;;5075135;28;20024;-78
2022/12/25 06:52:02;;;;;;;1.50;1.40;;;6.70;99.90;;;;;;5075415;28;20020;-77
2022/12/25 06:54:28;;;;;;;2.92;1.42;;;6.70;99.90;;;;;;5075310;28;20584;-78
2022/12/25 06:56:53;;;;;;;1.52;1.38;;;6.50;99.90;;;;;;5075248;28;20039;-78
2022/12/25 06:59:19;;;;;;;1.67;1.58;;;6.50;99.90;;;;;;5075249;28;20397;-78
2022/12/25 07:01:48;;;;;;;1.70;1.50;;;6.60;99.90;;;;;;5075557;28;20024;-78
2022/12/25 07:04:27;;;;;;;1.63;1.52;;;6.60;99.90;;;;;;5087442;28;20032;-77
2022/12/25 07:06:53;;;;;;;1.63;1.52;;;6.80;99.90;;;;;;5095418;28;20023;-78
2022/12/25 07:09:19;;;;;;;2.05;1.50;;;6.70;99.90;;;;;;5095660;28;20028;-78
2022/12/25 07:11:44;;;;;;;1.45;1.35;;;6.60;99.90;;;;;;5095161;28;20016;-78
2022/12/25 07:14:18;;;;;;;1.83;1.60;;;6.70;99.90;;;;;;5095105;28;20028;-78
2022/12/25 07:16:44;;;;;;;1.60;1.40;;;6.70;99.90;;;;;;5093793;28;20633;-77
2022/12/25 07:19:10;;;;;;;1.90;1.70;;;6.60;99.90;;;;;;5095354;28;20028;-77
2022/12/25 07:21:36;;;;;;;2.08;1.80;;;6.70;99.90;;;;;;5088258;28;20481;-78
2022/12/25 07:24:01;;;;;;;1.95;1.67;;;6.70;99.90;;;;;;5074906;28;20028;-78
2022/12/25 07:26:27;;;;;;;2.22;2.03;;;6.80;99.90;;;;;;5074743;28;20017;-78
2022/12/25 07:28:54;;;;;;;2.20;2.00;;;6.80;99.90;;;;;;5074588;28;20039;-78
2022/12/25 07:31:20;;;;;;;2.45;2.22;;;7.00;99.90;;;;;;5074482;28;20025;-78
2022/12/25 07:33:46;;;;;;;3.33;2.40;;;6.90;99.90;;;;;;5074809;28;20028;-78
2022/12/25 07:36:13;;;;;;;3.42;2.80;;;6.90;99.90;;;;;;5074361;28;20023;-78
2022/12/25 07:38:40;;;;;;;3.55;2.40;;;6.90;99.90;;;;;;5074838;28;20024;-78
2022/12/25 07:41:12;;;;;;;3.15;2.85;;;6.90;99.90;;;;;;5074655;28;20048;-78
2022/12/25 07:43:38;;;;;;;5.55;2.95;;;6.90;99.90;;;;;;5073954;28;20563;-78
2022/12/25 07:46:04;;;;;;;2.78;2.28;;;6.90;99.90;;;;;;5074447;28;20025;-78
2022/12/25 07:48:30;;;;;;;5.13;3.08;;;6.90;99.90;;;;;;5074465;28;20032;-77
2022/12/25 07:50:59;;;;;;;6.95;3.75;;;6.90;99.90;;;;;;5073270;28;20117;-78
2022/12/25 07:53:25;;;;;;;8.88;5.35;;;6.90;99.90;;;;;;5074328;28;20048;-78
2022/12/25 07:56:06;;;;;;;11.10;6.10;;;7.00;99.90;;;;;;5074447;28;20017;-77
2022/12/25 07:58:33;;;;;;;9.23;6.10;;;6.90;99.90;;;;;;5074028;28;20098;-78
2022/12/25 08:01:12;;;;;;;10.38;6.60;;;7.00;99.90;;;;;;5074245;28;20071;-78
2022/12/25 08:03:37;;;;;;;11.35;6.80;;;7.00;99.90;;;;;;5081691;28;20024;-78
2022/12/25 08:06:05;;;;;;;14.77;8.00;;;7.00;99.90;;;;;;5094519;28;20030;-78
2022/12/25 08:08:32;;;;;;;14.95;8.88;;;7.20;99.90;;;;;;5094140;28;20557;-77
2022/12/25 08:10:59;;;;;;;13.88;8.05;;;7.30;99.90;;;;;;5094318;28;20500;-78
2022/12/25 08:13:25;;;;;;;12.60;7.68;;;7.60;99.90;;;;;;5093850;28;20027;-78
2022/12/25 08:15:57;;;;;;;11.38;7.07;;;7.60;99.90;;;;;;5094178;28;20015;-78
2022/12/25 08:18:23;;;;;;;10.40;7.20;;;7.50;99.90;;;;;;5094246;28;20023;-78
2022/12/25 08:20:48;;;;;;;13.32;7.85;;;7.50;99.90;;;;;;5093850;28;20032;-78
2022/12/25 08:23:14;;;;;;;11.40;7.65;;;7.40;99.90;;;;;;5073777;28;20458;-78
2022/12/25 08:25:40;;;;;;;10.43;6.80;;;7.40;99.90;;;;;;5073912;28;20393;-78
2022/12/25 08:28:05;;;;;;;11.88;7.38;;;7.60;99.90;;;;;;5073288;28;20056;-78
2022/12/25 08:30:31;;;;;;;11.45;6.95;;;7.40;99.90;;;;;;5073545;28;20031;-77
2022/12/25 08:32:56;;;;;;;10.07;7.03;;;7.50;99.90;;;;;;5073756;28;20521;-77
2022/12/25 08:35:22;;;;;;;8.85;6.32;;;7.40;99.90;;;;;;5073557;28;20017;-77
2022/12/25 08:37:48;;;;;;;9.07;6.32;;;7.40;99.90;;;;;;5073523;28;20048;-77
2022/12/25 08:40:14;;;;;;;8.10;6.38;;;7.30;99.90;;;;;;5073548;28;20554;-77
2022/12/25 08:42:39;;;;;;;7.45;6.10;;;7.40;99.90;;;;;;5073073;28;20048;-78
2022/12/25 08:45:06;;;;;;;7.95;6.10;;;7.40;99.90;;;;;;5073162;28;20504;-77
2022/12/25 08:47:31;;;;;;;7.15;5.35;;;7.30;99.90;;;;;;5073259;28;20033;-77
2022/12/25 08:49:57;;;;;;;7.47;5.50;;;7.40;99.90;;;;;;5073321;28;20037;-77
2022/12/25 08:52:22;;;;;;;6.80;5.38;;;7.30;99.90;;;;;;5073320;28;20020;-77
2022/12/25 08:54:48;;;;;;;8.65;5.93;;;7.40;99.90;;;;;;5073033;28;20481;-77
2022/12/25 08:57:14;;;;;;;6.20;4.47;;;7.40;99.90;;;;;;5071670;28;20556;-77
2022/12/25 08:59:39;;;;;;;7.43;5.10;;;7.50;99.90;;;;;;5072772;28;20029;-77
2022/12/25 09:02:05;;;;;;;6.20;4.85;;;7.60;99.90;;;;;;5072846;28;20025;-77
2022/12/25 09:04:31;;;;;;;5.75;4.57;;;7.80;99.90;;;;;;5087867;28;20129;-77
2022/12/25 09:06:57;;;;;;;5.32;4.75;;;8.00;99.90;;;;;;5093261;28;20024;-77
2022/12/25 09:09:28;;;;;;;5.53;4.28;;;8.40;99.90;;;;;;5093056;28;20457;-77
2022/12/25 09:11:54;;;;;;;5.63;4.55;;;9.30;99.90;;;;;;5093003;28;20020;-77
2022/12/25 09:14:21;;;;;;;5.82;4.63;;;10.00;99.90;;;;;;5092611;28;20378;-77
2022/12/25 09:16:49;;;;;;;5.68;4.50;;;10.50;99.90;;;;;;5093165;28;20027;-77
2022/12/25 09:19:15;;;;;;;5.47;4.63;;;10.00;99.90;;;;;;5093296;28;20028;-77
2022/12/25 09:21:41;;;;;;;5.40;4.40;;;9.60;99.90;;;;;;5085338;28;20083;-78
2022/12/25 09:24:07;;;;;;;5.45;4.32;;;9.40;99.90;;;;;;5072343;28;20513;-77
2022/12/25 09:26:33;;;;;;;6.28;5.18;;;9.30;99.90;;;;;;5072426;28;20508;-78
2022/12/25 09:28:58;;;;;;;6.15;4.78;;;9.30;99.90;;;;;;5072297;28;20036;-78
2022/12/25 09:31:24;;;;;;;5.20;4.55;;;9.30;99.90;;;;;;5072215;28;20034;-78
2022/12/25 09:33:50;;;;;;;6.00;4.75;;;9.30;99.90;;;;;;5072754;28;20023;-77
2022/12/25 09:36:16;;;;;;;5.50;4.55;;;9.20;99.90;;;;;;5072483;28;20021;-77
2022/12/25 09:38:41;;;;;;;6.15;4.72;;;9.30;99.90;;;;;;5072593;28;20512;-77
2022/12/25 09:41:16;;;;;;;6.03;4.80;;;9.40;99.90;;;;;;5072400;28;20521;-78
2022/12/25 09:43:47;;;;;;;5.05;3.70;;;9.50;99.90;;;;;;5071734;28;20074;-78
2022/12/25 09:46:15;;;;;;;;;;;9.60;99.90;;;;;;5072602;28;20027;-77
2022/12/25 09:48:49;;;;;;;3.83;3.42;;;9.70;99.90;;;;;;5072502;28;19912;-78
2022/12/25 09:51:17;;;;;;;5.18;4.25;;;9.80;99.90;;;;;;5072395;28;20090;-78
2022/12/25 09:53:51;;;;;;;5.90;4.50;;;10.00;99.90;;;;;;5072161;28;20020;-78
2022/12/25 09:56:24;;;;;;;5.25;4.32;;;10.20;99.90;;;;;;5071789;28;20012;-78
2022/12/25 09:58:50;;;;;;;4.57;3.58;;;10.20;99.90;;;;;;5072027;28;20024;-77
2022/12/25 10:01:36;;;;;;;5.07;3.90;;;10.30;99.90;;;;;;5072380;28;20052;-78
2022/12/25 10:04:20;;;;;;;5.43;4.00;;;10.60;99.90;;;;;;5083178;28;20182;-78
2022/12/25 10:07:09;;;;;;;5.10;4.10;;;10.70;99.90;;;;;;5092387;28;20075;-78
2022/12/25 10:09:40;;;;;;;6.65;4.10;;;11.20;99.90;;;;;;5092057;28;20024;-77
2022/12/25 10:12:22;;;;;;;5.07;4.07;;;11.40;99.90;;;;;;5091957;28;20032;-78
2022/12/25 10:15:20;;;;;;;4.22;3.63;;;11.50;99.90;;;;;;5092578;28;20485;-77
2022/12/25 10:18:30;;;;;;;4.57;3.92;;;11.60;99.90;;;;;;5096656;28;20081;-77
2022/12/25 10:20:58;;;;;;;5.70;4.32;;;11.70;99.90;;;;;;5094984;28;20098;-78
2022/12/25 10:23:51;;;;;;;4.72;4.22;;;11.80;99.90;;;;;;5076429;28;20020;-77
2022/12/25 10:26:23;;;;;;;5.18;4.68;;;11.90;99.90;;;;;;5075314;28;20051;-78
2022/12/25 10:29:18;;;;;;;5.95;5.05;;;12.00;99.90;;;;;;5075777;28;20242;-78
2022/12/25 10:31:46;;;;;;;6.15;5.20;;;12.10;99.90;;;;;;5075020;28;20085;-77
2022/12/25 10:34:14;;;;;;;8.75;5.28;;;12.10;99.90;;;;;;5075969;28;20025;-77
2022/12/25 10:36:42;;;;;;;7.38;6.00;;;12.20;99.90;;;;;;5075516;28;20073;-78
2022/12/25 10:39:37;;;;;;;7.93;6.18;;;12.20;99.90;;;;;;5075923;28;20027;-78
2022/12/25 10:42:14;;;;;;;9.05;5.68;;;12.30;99.90;;;;;;5072191;28;20033;-78
2022/12/25 10:44:52;;;;;;;9.27;6.15;;;12.30;99.90;;;;;;5075346;28;20028;-78
2022/12/25 10:47:23;;;;;;;12.43;7.47;;;12.30;99.90;;;;;;5075649;28;20016;-78
2022/12/25 10:49:49;;;;;;;9.32;7.38;;;12.40;99.90;;;;;;5075660;28;20500;-78
2022/12/25 10:52:20;;;;;;;9.05;7.72;;;12.50;99.90;;;;;;5075342;28;20048;-78
2022/12/25 10:54:46;;;;;;;9.48;7.78;;;12.50;99.90;;;;;;5075179;28;20104;-77
2022/12/25 10:57:17;;;;;;;8.25;6.80;;;12.60;99.90;;;;;;5075334;28;20599;-78
2022/12/25 10:59:47;;;;;;;9.30;7.65;;;12.60;99.90;;;;;;5075321;28;20498;-78
2022/12/25 11:02:21;;;;;;;9.55;8.18;;;12.70;99.90;;;;;;5075374;28;20059;-78
2022/12/25 11:04:47;;;;;;;11.27;8.00;;;12.70;99.90;;;;;;5092485;28;20024;-78
2022/12/25 11:07:22;;;;;;;10.80;8.35;;;12.80;99.90;;;;;;5095521;28;20020;-78
2022/12/25 11:09:58;;;;;;;11.00;9.15;;;12.80;99.90;;;;;;5095280;28;20579;-78
2022/12/25 11:12:34;;;;;;;12.20;8.13;;;12.70;99.90;;;;;;5094900;28;20028;-78
2022/12/25 11:15:04;;;;;;;10.45;8.23;;;12.60;99.90;;;;;;5095334;28;20012;-77
2022/12/25 11:17:29;;;;;;;9.38;8.30;;;12.60;99.90;;;;;;5095132;28;20047;-77
2022/12/25 11:20:01;;;;;;;8.05;7.25;;;12.60;99.90;;;;;;5095594;28;20466;-77
2022/12/25 11:22:30;;;;;;;9.65;8.10;;;12.60;99.90;;;;;;5080768;28;20032;-78
2022/12/25 11:24:55;;;;;;;8.90;7.65;;;12.70;99.90;;;;;;5074471;28;20089;-78
2022/12/25 11:27:27;;;;;;;8.07;7.25;;;12.70;99.90;;;;;;5074586;28;20498;-78
2022/12/25 11:30:02;;;;;;;11.63;8.25;;;12.70;99.90;;;;;;5074758;28;20099;-78
2022/12/25 11:32:29;;;;;;;9.63;7.85;;;12.80;99.90;;;;;;5074816;28;20085;-78
2022/12/25 11:34:55;;;;;;;8.32;7.45;;;12.80;99.90;;;;;;5074791;28;20020;-77
2022/12/25 11:37:37;;;;;;;7.82;7.07;;;12.80;99.90;;;;;;5074501;28;20013;-77
2022/12/25 11:40:04;;;;;;;7.93;6.93;;;12.80;99.90;;;;;;5074967;28;20048;-78
2022/12/25 11:42:39;;;;;;;7.70;6.72;;;12.80;99.90;;;;;;5074396;28;20056;-78
2022/12/25 11:45:16;;;;;;;11.80;7.55;;;12.90;99.90;;;;;;5074524;28;20028;-78
2022/12/25 11:48:20;;;;;;;10.98;7.82;;;12.90;99.90;;;;;;5074643;28;20535;-77
2022/12/25 11:50:52;;;;;;;8.05;7.25;;;13.00;99.90;;;;;;5074485;28;20043;-77
2022/12/25 11:53:47;;;;;;;9.23;7.43;;;12.90;99.90;;;;;;5074432;28;20021;-77
2022/12/25 11:56:31;;;;;;;7.97;7.18;;;13.00;99.90;;;;;;5068855;28;20064;-78
2022/12/25 11:59:15;;;;;;;8.85;7.40;;;13.00;99.90;;;;;;5073979;28;20158;-77
2022/12/25 12:01:53;;;;;;;9.43;7.30;;;13.00;99.90;;;;;;5072871;28;20477;-78
2022/12/25 12:04:48;;;;;;;8.80;7.43;;;13.10;99.90;;;;;;5087509;28;20028;-78
2022/12/25 12:07:26;;;;;;;9.55;7.10;;;13.00;99.90;;;;;;5092237;28;20036;-78
2022/12/25 12:10:39;;;;;;;7.47;6.78;;;13.00;99.90;;;;;;5094624;28;20096;-78
2022/12/25 12:13:04;;;;;;;7.15;6.28;;;13.20;99.90;;;;;;5085389;28;20047;-78
2022/12/25 12:15:49;;;;;;;8.50;7.03;;;13.30;99.90;;;;;;5094366;28;20020;-78
2022/12/25 12:18:31;;;;;;;10.32;7.00;;;13.40;99.90;;;;;;5094250;28;20024;-78
2022/12/25 12:21:04;;;;;;;8.45;7.43;;;13.40;99.90;;;;;;5092576;28;20044;-78
2022/12/25 12:23:50;;;;;;;8.68;7.18;;;13.40;99.90;;;;;;5073923;28;20054;-77
2022/12/25 12:26:27;;;;;;;6.57;5.93;;;13.40;99.90;;;;;;5073766;28;20500;-78
2022/12/25 12:29:03;;;;;;;7.70;6.00;;;13.50;99.90;;;;;;5073206;28;20037;-78
2022/12/25 12:31:39;;;;;;;7.03;6.07;;;13.60;99.90;;;;;;5073592;28;20036;-77
2022/12/25 12:34:05;;;;;;;6.00;5.40;;;13.70;99.90;;;;;;5073614;28;20077;-78
2022/12/25 12:36:31;;;;;;;6.53;5.75;;;13.70;99.90;;;;;;5073129;28;20021;-78
2022/12/25 12:38:57;;;;;;;8.70;6.32;;;13.70;99.90;;;;;;5073223;28;20021;-77
2022/12/25 12:41:38;;;;;;;8.32;6.20;;;13.90;99.90;;;;;;5073373;28;20025;-78
2022/12/25 12:44:04;;;;;;;8.18;6.40;;;13.90;99.90;;;;;;5073195;28;20021;-77
2022/12/25 12:46:35;;;;;;;8.40;6.25;;;13.90;99.90;;;;;;5073290;28;20024;-78
2022/12/25 12:49:28;;;;;;;6.97;5.90;;;13.80;99.90;;;;;;5073452;28;20036;-77
2022/12/25 12:52:25;;;;;;;7.43;5.82;;;13.90;99.90;;;;;;5073122;28;20037;-77
2022/12/25 12:55:13;;;;;;;6.63;5.70;;;13.80;99.90;;;;;;5060932;28;20627;-78
2022/12/25 12:57:39;;;;;;;6.53;5.88;;;13.80;99.90;;;;;;5072962;28;20025;-78
2022/12/25 13:00:11;;;;;;;5.75;5.25;;;13.80;99.90;;;;;;5073129;28;20032;-78
2022/12/25 13:03:15;;;;;;;6.93;5.55;;;13.90;99.90;;;;;;5072931;28;20032;-78
2022/12/25 13:05:44;;;;;;;8.32;5.57;;;14.10;99.90;;;;;;5030352;28;20046;-78
2022/12/25 13:08:27;;;;;;;5.10;4.57;;;13.90;99.90;;;;;;5030539;28;20037;-78
2022/12/25 13:11:32;;;;;;;7.47;5.30;;;14.10;99.90;;;;;;5030430;28;20039;-77
2022/12/25 13:14:01;;;;;;;7.30;4.95;;;13.90;99.90;;;;;;5029845;28;20039;-78
2022/12/25 13:16:34;;;;;;;5.70;5.10;;;14.20;99.90;;;;;;5030393;28;20033;-78
2022/12/25 13:19:07;;;;;;;9.02;5.97;;;14.20;99.90;;;;;;5013620;28;20487;-78
2022/12/25 13:21:33;;;;;;;6.85;5.13;;;14.30;99.90;;;;;;5036343;28;20033;-78
2022/12/25 13:24:02;;;;;;;7.53;5.63;;;14.30;99.90;;;;;;5050310;28;20049;-77
2022/12/25 13:26:29;;;;;;;7.43;6.50;;;14.30;99.90;;;;;;5049940;28;20037;-78
2022/12/25 13:28:55;;;;;;;9.00;5.95;;;14.30;99.90;;;;;;5049834;28;20037;-78
2022/12/25 13:31:30;;;;;;;7.40;5.20;;;14.20;99.90;;;;;;5050054;28;20542;-78
2022/12/25 13:34:03;;;;;;;6.38;4.85;;;14.30;99.90;;;;;;5049852;28;20099;-78
2022/12/25 13:36:37;;;;;;;9.52;5.22;;;14.30;99.90;;;;;;5049986;28;20032;-78
2022/12/25 13:39:07;;;;;;;8.55;5.03;;;14.30;99.90;;;;;;5049964;28;20018;-78
2022/12/25 13:44:45;;;;;;;7.18;4.78;;;14.30;99.90;;;;;;5052342;28;20538;-78
2022/12/25 13:47:25;;;;;;;7.93;5.00;;;14.30;99.90;;;;;;5052578;28;20094;-77
2022/12/25 13:49:54;;;;;;;4.93;4.13;;;14.30;99.90;;;;;;5051312;28;20036;-77
2022/12/25 13:52:34;;;;;;;5.72;4.65;;;14.30;99.90;;;;;;5052254;28;20259;-78
2022/12/25 13:55:03;;;;;;;5.47;4.93;;;14.30;99.90;;;;;;5052110;28;20037;-78
2022/12/25 13:57:38;;;;;;;6.50;4.70;;;14.40;99.90;;;;;;5059994;28;20031;-78
2022/12/25 14:00:15;;;;;;;6.22;4.57;;;14.40;99.90;;;;;;5072155;28;20039;-78
2022/12/25 14:02:41;;;;;;;8.57;4.70;;;14.30;99.90;;;;;;5072241;28;20024;-77
2022/12/25 14:05:30;;;;;;;8.52;4.70;;;14.50;99.90;;;;;;5092238;28;20039;-77
2022/12/25 14:07:58;;;;;;;8.68;5.05;;;14.30;99.90;;;;;;5092522;28;20089;-78
2022/12/25 14:10:27;;;;;;;9.77;5.32;;;14.40;99.90;;;;;;5092257;28;20042;-78
2022/12/25 14:12:57;;;;;;;9.88;5.20;;;14.50;99.90;;;;;;5092022;28;20051;-77
2022/12/25 14:15:23;;;;;;;7.13;5.00;;;14.40;99.90;;;;;;5092425;28;20042;-78
2022/12/25 14:17:50;;;;;;;9.10;5.22;;;14.40;99.90;;;;;;5091957;28;20161;-78
2022/12/25 14:20:33;;;;;;;5.90;4.93;;;14.40;99.90;;;;;;5092076;28;20107;-77
2022/12/25 14:22:59;;;;;;;6.75;4.28;;;14.30;99.90;;;;;;5073745;28;20029;-77
2022/12/25 14:25:32;;;;;;;8.75;5.25;;;14.30;99.90;;;;;;5072119;28;20048;-77
2022/12/25 14:28:03;;;;;;;6.80;4.43;;;14.40;99.90;;;;;;5071515;28;20044;-78
2022/12/25 14:30:29;;;;;;;6.65;4.85;;;14.30;99.90;;;;;;5071930;28;20028;-77
2022/12/25 14:32:55;;;;;;;9.63;5.13;;;14.30;99.90;;;;;;5071653;28;20547;-77
2022/12/25 14:35:22;;;;;;;7.15;5.00;;;14.20;99.90;;;;;;5071964;28;20029;-78
2022/12/25 14:37:53;;;;;;;5.30;4.60;;;14.10;99.90;;;;;;5071739;28;20092;-77
2022/12/25 14:40:29;;;;;;;6.97;4.75;;;14.00;99.90;;;;;;5071954;28;20037;-77
2022/12/25 14:43:05;;;;;;;7.35;4.85;;;14.10;99.90;;;;;;5071555;28;20029;-77
2022/12/25 14:45:33;;;;;;;6.95;4.88;;;14.20;99.90;;;;;;5071688;28;20024;-78
2022/12/25 14:48:03;;;;;;;6.25;4.95;;;14.20;99.90;;;;;;5071743;28;20056;-78
2022/12/25 14:50:37;;;;;;;6.93;4.88;;;14.10;99.90;;;;;;5071935;28;20127;-77
2022/12/25 14:53:03;;;;;;;7.90;4.70;;;14.10;99.90;;;;;;5071643;28;20017;-77
2022/12/25 14:55:29;;;;;;;6.32;5.00;;;14.00;99.90;;;;;;5071591;28;20032;-77
2022/12/25 14:58:07;;;;;;;7.32;4.78;;;14.10;99.90;;;;;;5071475;28;20070;-77